Linate Airport LIML

Flugplatz Daten

Name: Linate Airport

Ident: LIML

Lat: 45,44509888

Long: 9,276740074

Platzhöhe: 353 ft

IataCode: LIN

City: Milan

Homepage: http://www.sea-aeroportimilano.it/en/

Metar

2021/12/03 23:20
LIML 032320Z 35002KT CAVOK 00/M00 Q1015 NOSIG

Taf

2021/12/03 18:00
TAF LIML 031700Z 0318/0418 VRB05KT 8000 FEW050
Gewünschte Webcam nicht vorhanden? Dann fügen Sie eine hinzu. Sie wird dann so schnell wie möglich freigeschaltet
Url: Title: